Time;durP1;ratioP1;P1;durP2;ratioP2;P2;SDS_P1;SDS_P2;PMS_P1;PMS_P2;Temp;Humidity;BMP_temperature;BMP_pressure;BME280_temperature;BME280_humidity;BME280_pressure;Samples;Min_cycle;Max_cycle;Signal;HPM_P1;HPM_P2
2022/01/15 00:01:09;;;;;;;;;;;4.20;99.90;;;;;;4966999;29;19921;-75
2022/01/15 00:03:34;;;;;;;;;;;4.10;99.90;;;;;;4966806;28;19910;-76
2022/01/15 00:06:00;;;;;;;;;;;4.10;99.90;;;;;;4970545;29;19917;-75
2022/01/15 00:08:25;;;;;;;;;;;4.20;99.90;;;;;;4969157;29;19917;-75
2022/01/15 00:10:51;;;;;;;;;;;4.10;99.90;;;;;;4970488;29;19936;-75
2022/01/15 00:13:26;;;;;;;;;;;4.20;99.90;;;;;;4970147;29;19917;-75
2022/01/15 00:16:02;;;;;;;;;;;4.10;99.90;;;;;;4969148;29;19911;-76
2022/01/15 00:18:41;;;;;;;;;;;4.10;99.90;;;;;;4969989;29;19918;-75
2022/01/15 00:21:07;;;;;;;;;;;4.10;99.90;;;;;;4970351;29;19949;-75
2022/01/15 00:23:32;;;;;;;;;;;4.10;99.90;;;;;;4970002;28;19933;-75
2022/01/15 00:25:58;;;;;;;;;;;4.10;99.90;;;;;;4968922;29;20366;-75
2022/01/15 00:28:23;;;;;;;;;;;4.10;99.90;;;;;;4972565;28;19920;-75
2022/01/15 00:30:49;;;;;;;;;;;4.00;99.90;;;;;;4979487;23;19938;-77
2022/01/15 00:33:14;;;;;;;;;;;4.00;99.90;;;;;;5009453;28;19917;-74
2022/01/15 00:35:40;;;;;;;;;;;4.00;99.90;;;;;;5011278;28;19909;-74
2022/01/15 00:38:05;;;;;;;;;;;4.00;99.90;;;;;;5011086;28;19941;-74
2022/01/15 00:40:31;;;;;;;;;;;4.00;99.90;;;;;;5011122;28;19909;-74
2022/01/15 00:42:56;;;;;;;;;;;4.00;99.90;;;;;;5015247;28;19909;-74
2022/01/15 00:45:22;;;;;;;;;;;4.00;99.90;;;;;;5048492;28;19909;-75
2022/01/15 00:47:49;;;;;;;;;;;4.00;99.90;;;;;;5048276;28;19909;-75
2022/01/15 00:50:14;;;;;;;;;;;4.00;99.90;;;;;;5030313;28;19913;-75
2022/01/15 00:52:42;;;;;;;;;;;4.00;99.90;;;;;;5013960;28;19931;-74
2022/01/15 00:55:08;;;;;;;;;;;3.90;99.90;;;;;;5014143;28;19916;-74
2022/01/15 00:57:34;;;;;;;;;;;4.00;99.90;;;;;;5048004;28;20019;-74
2022/01/15 00:59:59;;;;;;;;;;;4.00;99.90;;;;;;5030222;28;19979;-75
2022/01/15 01:02:25;;;;;;;;;;;4.00;99.90;;;;;;5029882;28;19909;-74
2022/01/15 01:04:50;;;;;;;;;;;4.00;99.90;;;;;;5029829;28;20428;-73
2022/01/15 01:07:16;;;;;;;;;;;3.90;99.90;;;;;;5048025;28;19909;-75
2022/01/15 01:21:00;;;;;;;;;;;3.90;99.90;;;;;;5029611;28;19980;-74
2022/01/15 01:23:24;;;;;;;;;;;3.90;99.90;;;;;;5029334;28;19976;-75
2022/01/15 01:25:55;;;;;;;;;;;3.80;99.90;;;;;;5047352;28;19909;-74
2022/01/15 01:28:31;;;;;;;;;;;3.90;99.90;;;;;;5040320;28;19948;-74
2022/01/15 01:31:12;;;;;;;;;;;3.90;99.90;;;;;;5026021;28;19910;-75
2022/01/15 01:33:43;;;;;;;;;;;3.80;99.90;;;;;;5025892;28;19910;-75
2022/01/15 01:36:17;;;;;;;;;;;3.90;99.90;;;;;;5025901;28;19979;-75
2022/01/15 01:38:55;;;;;;;;;;;3.90;99.90;;;;;;5009513;28;19924;-75
2022/01/15 01:41:22;;;;;;;;;;;3.80;99.90;;;;;;5009716;28;19960;-75
2022/01/15 01:43:52;;;;;;;;;;;3.90;99.90;;;;;;5046422;28;19909;-75
2022/01/15 01:48:51;;;;;;;;;;;3.80;99.90;;;;;;5046771;28;19912;-75
2022/01/15 01:51:24;;;;;;;;;;;3.80;99.90;;;;;;5046674;28;19992;-75
2022/01/15 01:53:50;;;;;;;;;;;3.80;99.90;;;;;;5028901;28;20361;-75
2022/01/15 01:56:16;;;;;;;;;;;3.80;99.90;;;;;;5046753;28;19909;-75
2022/01/15 01:58:41;;;;;;;;;;;3.80;99.90;;;;;;5046562;28;20376;-75
2022/01/15 02:01:07;;;;;;;;;;;3.80;99.90;;;;;;5046541;28;19917;-75
2022/01/15 02:03:32;;;;;;;;;;;3.70;99.90;;;;;;5046362;28;19944;-75
2022/01/15 02:05:58;;;;;;;;;;;3.70;99.90;;;;;;5046468;28;19916;-75
2022/01/15 02:08:24;;;;;;;;;;;3.70;99.90;;;;;;5029556;28;19916;-75
2022/01/15 02:10:50;;;;;;;;;;;3.80;99.90;;;;;;5029112;28;19948;-75
2022/01/15 02:13:15;;;;;;;;;;;3.70;99.90;;;;;;5028493;28;19916;-75
2022/01/15 02:15:41;;;;;;;;;;;3.70;99.90;;;;;;5028649;28;19945;-75
2022/01/15 02:18:07;;;;;;;;;;;3.70;99.90;;;;;;5046230;28;19916;-74
2022/01/15 02:25:45;;;;;;;;;;;3.70;99.90;;;;;;5046204;28;20285;-75
2022/01/15 02:28:11;;;;;;;;;;;3.70;99.90;;;;;;5040097;28;20393;-75
2022/01/15 02:30:36;;;;;;;;;;;3.70;99.90;;;;;;5026337;28;19921;-74
2022/01/15 02:33:03;;;;;;;;;;;3.70;99.90;;;;;;5026158;28;19940;-74
2022/01/15 02:35:29;;;;;;;;;;;3.70;99.90;;;;;;5026400;28;19909;-74
2022/01/15 02:38:00;;;;;;;;;;;3.70;99.90;;;;;;5026230;28;19960;-75
2022/01/15 02:40:25;;;;;;;;;;;3.70;99.90;;;;;;5026385;28;19964;-75
2022/01/15 02:42:51;;;;;;;;;;;3.70;99.90;;;;;;5037968;28;19913;-75
2022/01/15 02:45:21;;;;;;;;;;;3.70;99.90;;;;;;5046013;28;19909;-75
2022/01/15 02:48:02;;;;;;;;;;;3.70;99.90;;;;;;5011982;28;19908;-74
2022/01/15 02:50:29;;;;;;;;;;;3.70;99.90;;;;;;5028302;28;19909;-75
2022/01/15 02:52:54;;;;;;;;;;;3.70;99.90;;;;;;5027916;28;19976;-74
2022/01/15 02:55:20;;;;;;;;;;;3.70;99.90;;;;;;5028324;28;19909;-74
2022/01/15 02:57:45;;;;;;;;;;;3.70;99.90;;;;;;5045985;28;19917;-75
2022/01/15 03:00:11;;;;;;;;;;;3.70;99.90;;;;;;5028089;28;19920;-75
2022/01/15 03:02:37;;;;;;;;;;;3.70;99.90;;;;;;5011570;28;20277;-75
2022/01/15 03:05:03;;;;;;;;;;;3.60;99.90;;;;;;5028105;28;19909;-75
2022/01/15 03:07:28;;;;;;;;;;;3.70;99.90;;;;;;5045926;28;19932;-74
2022/01/15 03:09:54;;;;;;;;;;;3.70;99.90;;;;;;5028194;28;19948;-75
2022/01/15 03:12:19;;;;;;;;;;;3.70;99.90;;;;;;5011683;28;19940;-75
2022/01/15 03:14:47;;;;;;;;;;;3.70;99.90;;;;;;5027939;28;19913;-75
2022/01/15 03:17:13;;;;;;;;;;;3.60;99.90;;;;;;5028054;28;19920;-74
2022/01/15 03:19:38;;;;;;;;;;;3.70;99.90;;;;;;5011559;28;19976;-75
2022/01/15 03:22:04;;;;;;;;;;;3.70;99.90;;;;;;5027957;28;19932;-75
2022/01/15 03:24:29;;;;;;;;;;;3.70;99.90;;;;;;5028170;28;19909;-75
2022/01/15 03:26:55;;;;;;;;;;;3.60;99.90;;;;;;5045575;28;19909;-75
2022/01/15 03:29:20;;;;;;;;;;;3.60;99.90;;;;;;5009656;28;19917;-74
2022/01/15 03:31:46;;;;;;;;;;;3.60;99.90;;;;;;4988157;28;19981;-75
2022/01/15 03:34:11;;;;;;;;;;;3.60;99.90;;;;;;4988498;28;19935;-74
2022/01/15 03:36:37;;;;;;;;;;;3.60;99.90;;;;;;5006017;28;19910;-74
2022/01/15 03:39:02;;;;;;;;;;;3.60;99.90;;;;;;4974568;28;19921;-75
2022/01/15 03:41:28;;;;;;;;;;;3.60;99.90;;;;;;4976001;28;20354;-74
2022/01/15 03:43:53;;;;;;;;;;;3.60;99.90;;;;;;4992262;28;19945;-75
2022/01/15 03:46:20;;;;;;;;;;;3.60;99.90;;;;;;4992125;28;19932;-74
2022/01/15 03:48:47;;;;;;;;;;;3.60;99.90;;;;;;5009585;28;19945;-75
2022/01/15 03:51:13;;;;;;;;;;;3.60;99.90;;;;;;5009581;28;20354;-74
2022/01/15 03:53:39;;;;;;;;;;;3.60;99.90;;;;;;5009305;28;19910;-75
2022/01/15 03:56:04;;;;;;;;;;;3.60;99.90;;;;;;5009458;28;19914;-75
2022/01/15 03:58:30;;;;;;;;;;;3.60;99.90;;;;;;5009367;28;19981;-75
2022/01/15 04:00:55;;;;;;;;;;;3.60;99.90;;;;;;5009213;28;19909;-74
2022/01/15 04:03:21;;;;;;;;;;;3.60;99.90;;;;;;5009247;28;19909;-75
2022/01/15 04:05:46;;;;;;;;;;;3.60;99.90;;;;;;5008064;28;19989;-75
2022/01/15 04:08:12;;;;;;;;;;;3.60;99.90;;;;;;4991682;28;19910;-74
2022/01/15 04:10:38;;;;;;;;;;;3.60;99.90;;;;;;5009079;28;19909;-74
2022/01/15 04:13:03;;;;;;;;;;;3.60;99.90;;;;;;5009077;28;19909;-75
2022/01/15 04:15:29;;;;;;;;;;;3.60;99.90;;;;;;5009111;28;19978;-75
2022/01/15 04:17:54;;;;;;;;;;;3.60;99.90;;;;;;5008967;28;20053;-75
2022/01/15 04:20:22;;;;;;;;;;;3.60;99.90;;;;;;4991665;28;19961;-74
2022/01/15 04:22:49;;;;;;;;;;;3.60;99.90;;;;;;5008864;28;19910;-75
2022/01/15 04:25:14;;;;;;;;;;;3.60;99.90;;;;;;5008905;28;19941;-75
2022/01/15 04:27:40;;;;;;;;;;;3.60;99.90;;;;;;5008660;28;19917;-75
2022/01/15 04:30:26;;;;;;;;;;;3.60;99.90;;;;;;5028499;28;19964;-74
2022/01/15 04:32:52;;;;;;;;;;;3.60;99.90;;;;;;5009859;23;19956;-74
2022/01/15 04:35:18;;;;;;;;;;;3.60;99.90;;;;;;4991713;28;19933;-74
2022/01/15 04:37:47;;;;;;;;;;;3.60;99.90;;;;;;4975383;28;20008;-75
2022/01/15 04:40:14;;;;;;;;;;;3.60;99.90;;;;;;4975372;28;19916;-74
2022/01/15 04:42:39;;;;;;;;;;;3.60;99.90;;;;;;5008785;28;19957;-74
2022/01/15 04:45:09;;;;;;;;;;;3.60;99.90;;;;;;5009208;28;19914;-75
2022/01/15 04:47:38;;;;;;;;;;;3.50;99.90;;;;;;4991321;28;19910;-74
2022/01/15 04:50:06;;;;;;;;;;;3.60;99.90;;;;;;4991048;28;19933;-74
2022/01/15 04:52:34;;;;;;;;;;;3.60;99.90;;;;;;5008676;28;20330;-74
2022/01/15 04:55:00;;;;;;;;;;;3.60;99.90;;;;;;4991350;28;19951;-74
2022/01/15 04:57:25;;;;;;;;;;;3.60;99.90;;;;;;4991096;28;20041;-74
2022/01/15 04:59:51;;;;;;;;;;;3.60;99.90;;;;;;4975321;28;19937;-74
2022/01/15 05:02:16;;;;;;;;;;;3.60;99.90;;;;;;5008485;28;19910;-74
2022/01/15 05:04:42;;;;;;;;;;;3.60;99.90;;;;;;5008495;28;19937;-73
2022/01/15 05:07:07;;;;;;;;;;;3.60;99.90;;;;;;5008275;28;20070;-74
2022/01/15 05:09:33;;;;;;;;;;;3.60;99.90;;;;;;4990812;28;19918;-74
2022/01/15 05:12:08;;;;;;;;;;;3.60;99.90;;;;;;4990654;28;19935;-74
2022/01/15 05:14:34;;;;;;;;;;;3.60;99.90;;;;;;5008190;28;19909;-74
2022/01/15 05:16:59;;;;;;;;;;;3.50;99.90;;;;;;5007986;28;20289;-74
2022/01/15 05:19:25;;;;;;;;;;;3.60;99.90;;;;;;5008002;28;19909;-74
2022/01/15 05:21:52;;;;;;;;;;;3.60;99.90;;;;;;5007859;28;19920;-74
2022/01/15 05:24:18;;;;;;;;;;;3.60;99.90;;;;;;5008025;28;19932;-74
2022/01/15 05:26:43;;;;;;;;;;;3.60;99.90;;;;;;5007885;28;19953;-74
2022/01/15 05:29:09;;;;;;;;;;;3.60;99.90;;;;;;4990355;28;19910;-74
2022/01/15 05:31:34;;;;;;;;;;;3.60;99.90;;;;;;5006236;28;19997;-75
2022/01/15 05:34:00;;;;;;;;;;;3.60;99.90;;;;;;4973909;28;20277;-75
2022/01/15 05:36:25;;;;;;;;;;;3.60;99.90;;;;;;4974060;28;19913;-74
2022/01/15 05:38:51;;;;;;;;;;;3.60;99.90;;;;;;5007489;28;19922;-74
2022/01/15 05:41:17;;;;;;;;;;;3.60;99.90;;;;;;5007471;28;19910;-75
2022/01/15 05:43:42;;;;;;;;;;;3.60;99.90;;;;;;4973766;28;19909;-75
2022/01/15 05:46:08;;;;;;;;;;;3.60;99.90;;;;;;4990067;28;19910;-75
2022/01/15 05:48:34;;;;;;;;;;;3.60;99.90;;;;;;5007425;28;19917;-74
2022/01/15 05:50:59;;;;;;;;;;;3.60;99.90;;;;;;4990090;28;19906;-75
2022/01/15 05:53:25;;;;;;;;;;;3.60;99.90;;;;;;4989763;28;19985;-75
2022/01/15 05:55:50;;;;;;;;;;;3.60;99.90;;;;;;5007332;28;19910;-74
2022/01/15 05:58:16;;;;;;;;;;;3.60;99.90;;;;;;4989759;28;19971;-74
2022/01/15 06:00:41;;;;;;;;;;;3.60;99.90;;;;;;5007086;28;19940;-74
2022/01/15 06:03:07;;;;;;;;;;;3.60;99.90;;;;;;5006176;28;19910;-74
2022/01/15 06:05:32;;;;;;;;;;;3.60;99.90;;;;;;4973647;28;19909;-75
2022/01/15 06:07:58;;;;;;;;;;;3.60;99.90;;;;;;4973563;28;19913;-75
2022/01/15 06:10:23;;;;;;;;;;;3.60;99.90;;;;;;5007217;28;19960;-75
2022/01/15 06:12:49;;;;;;;;;;;3.60;99.90;;;;;;4990177;28;20344;-74
2022/01/15 06:15:15;;;;;;;;;;;3.60;99.90;;;;;;5007416;28;19963;-75
2022/01/15 06:17:41;;;;;;;;;;;3.60;99.90;;;;;;5006882;28;19918;-80
2022/01/15 06:20:08;;;;;;;;;;;3.50;99.90;;;;;;4990398;28;19910;-79
2022/01/15 06:22:34;;;;;;;;;;;3.50;99.90;;;;;;4987283;28;20273;-77
2022/01/15 06:24:59;;;;;;;;;;;3.60;99.90;;;;;;4987415;28;19909;-76
2022/01/15 06:27:24;;;;;;;;;;;3.60;99.90;;;;;;4987113;28;19910;-78
2022/01/15 06:29:50;;;;;;;;;;;3.50;99.90;;;;;;4988602;28;19909;-76
2022/01/15 06:32:15;;;;;;;;;;;3.60;99.90;;;;;;4988952;28;19921;-78
2022/01/15 06:34:41;;;;;;;;;;;3.60;99.90;;;;;;5005298;28;19916;-76
2022/01/15 06:37:07;;;;;;;;;;;3.60;99.90;;;;;;4989169;28;19972;-79
2022/01/15 06:39:33;;;;;;;;;;;3.60;99.90;;;;;;5006726;28;19910;-76
2022/01/15 06:41:59;;;;;;;;;;;3.60;99.90;;;;;;4988945;28;19917;-77
2022/01/15 06:44:25;;;;;;;;;;;3.50;99.90;;;;;;4973076;28;19910;-78
2022/01/15 06:46:50;;;;;;;;;;;3.50;99.90;;;;;;4989151;28;19917;-77
2022/01/15 06:49:16;;;;;;;;;;;3.50;99.90;;;;;;4988556;28;19914;-81
2022/01/15 06:51:41;;;;;;;;;;;3.50;99.90;;;;;;4989095;28;19910;-77
2022/01/15 06:54:07;;;;;;;;;;;3.60;99.90;;;;;;5006820;28;20016;-77
2022/01/15 06:56:32;;;;;;;;;;;3.50;99.90;;;;;;4989074;28;20366;-80
2022/01/15 06:58:58;;;;;;;;;;;3.50;99.90;;;;;;5006201;28;19925;-78
2022/01/15 07:01:24;;;;;;;;;;;3.50;99.90;;;;;;5006196;28;19920;-76
2022/01/15 07:03:49;;;;;;;;;;;3.50;99.90;;;;;;4988618;28;19953;-75
2022/01/15 07:06:15;;;;;;;;;;;3.50;99.90;;;;;;4972919;28;20014;-76
2022/01/15 07:08:41;;;;;;;;;;;3.50;99.90;;;;;;4972710;28;19972;-75
2022/01/15 07:11:06;;;;;;;;;;;3.50;99.90;;;;;;4988967;28;20288;-76
2022/01/15 07:13:33;;;;;;;;;;;3.50;99.90;;;;;;4974182;28;19905;-77
2022/01/15 07:15:59;;;;;;;;;;;3.50;99.90;;;;;;5010484;28;19933;-76
2022/01/15 07:18:24;;;;;;;;;;;3.50;99.90;;;;;;4992321;28;20355;-77
2022/01/15 07:20:51;;;;;;;;;;;3.50;99.90;;;;;;4992733;28;19910;-75
2022/01/15 07:23:17;;;;;;;;;;;3.50;99.90;;;;;;4976338;28;19960;-76
2022/01/15 07:25:42;;;;;;;;;;;3.50;99.90;;;;;;4992649;28;19910;-76
2022/01/15 07:28:08;;;;;;;;;;;3.50;99.90;;;;;;4992235;28;19964;-79
2022/01/15 07:30:35;;;;;;;;;;;3.50;99.90;;;;;;5009870;28;19916;-75
2022/01/15 07:33:00;;;;;;;;;;;3.50;99.90;;;;;;5008059;28;19917;-75
2022/01/15 07:35:26;;;;;;;;;;;3.40;99.90;;;;;;5009795;28;19937;-76
2022/01/15 07:37:51;;;;;;;;;;;3.40;99.90;;;;;;4992148;28;19922;-76
2022/01/15 07:40:17;;;;;;;;;;;3.50;99.90;;;;;;4992191;28;19912;-75
2022/01/15 07:42:43;;;;;;;;;;;3.50;99.90;;;;;;4991887;28;19921;-76
2022/01/15 07:45:11;;;;;;;;;;;3.50;99.90;;;;;;4975934;28;19910;-79
2022/01/15 07:47:37;;;;;;;;;;;3.50;99.90;;;;;;4991736;28;19914;-76
2022/01/15 07:50:04;;;;;;;;;;;3.50;99.90;;;;;;4975743;28;19937;-76
2022/01/15 07:52:29;;;;;;;;;;;3.50;99.90;;;;;;4991770;28;20341;-75
2022/01/15 07:54:58;;;;;;;;;;;3.50;99.90;;;;;;4992006;28;19917;-75
2022/01/15 07:57:24;;;;;;;;;;;3.50;99.90;;;;;;5009310;28;19917;-77
2022/01/15 07:59:50;;;;;;;;;;;3.50;99.90;;;;;;5009207;28;19910;-75
2022/01/15 08:02:16;;;;;;;;;;;3.50;99.90;;;;;;5008938;28;19941;-75
2022/01/15 08:04:42;;;;;;;;;;;3.50;99.90;;;;;;4991746;28;19924;-75
2022/01/15 08:07:09;;;;;;;;;;;3.50;99.90;;;;;;5009192;28;19977;-75
2022/01/15 08:09:37;;;;;;;;;;;3.50;99.90;;;;;;5007905;28;20369;-75
2022/01/15 08:12:04;;;;;;;;;;;3.50;99.90;;;;;;5009086;28;20068;-75
2022/01/15 08:14:29;;;;;;;;;;;3.50;99.90;;;;;;5008838;28;19917;-75
2022/01/15 08:16:55;;;;;;;;;;;3.50;99.90;;;;;;5008988;28;19910;-75
2022/01/15 08:19:20;;;;;;;;;;;3.50;99.90;;;;;;4991156;28;19949;-76
2022/01/15 08:21:46;;;;;;;;;;;3.50;99.90;;;;;;4991318;28;19976;-75
2022/01/15 08:24:11;;;;;;;;;;;3.50;99.90;;;;;;4990772;28;20161;-77
2022/01/15 08:26:37;;;;;;;;;;;3.50;99.90;;;;;;4990967;28;19924;-75
2022/01/15 08:29:03;;;;;;;;;;;3.50;99.90;;;;;;4974852;28;19978;-75
2022/01/15 08:31:28;;;;;;;;;;;3.50;99.90;;;;;;4990845;28;19953;-75
2022/01/15 08:33:54;;;;;;;;;;;3.50;99.90;;;;;;4991109;28;19910;-75
2022/01/15 08:36:20;;;;;;;;;;;3.50;99.90;;;;;;4991000;28;20309;-76
2022/01/15 08:38:46;;;;;;;;;;;3.50;99.90;;;;;;5008135;28;19997;-75
2022/01/15 08:41:14;;;;;;;;;;;3.50;99.90;;;;;;4990604;28;19933;-75
2022/01/15 08:43:40;;;;;;;;;;;3.50;99.90;;;;;;4974440;28;19916;-76
2022/01/15 08:46:06;;;;;;;;;;;3.50;99.90;;;;;;4976534;28;19932;-78
2022/01/15 08:48:31;;;;;;;;;;;3.50;99.90;;;;;;4993910;28;19910;-76
2022/01/15 08:50:57;;;;;;;;;;;3.50;99.90;;;;;;4988124;28;19917;-80
2022/01/15 08:53:23;;;;;;;;;;;3.50;99.90;;;;;;4988303;28;19910;-80
2022/01/15 08:55:49;;;;;;;;;;;3.50;99.90;;;;;;4988405;28;19910;-78
2022/01/15 08:58:14;;;;;;;;;;;3.50;99.90;;;;;;4988298;28;20014;-79
2022/01/15 09:00:40;;;;;;;;;;;3.50;99.90;;;;;;4987915;28;19917;-76
2022/01/15 09:03:07;;;;;;;;;;;3.50;99.90;;;;;;4988005;28;19914;-77
2022/01/15 09:05:34;;;;;;;;;;;3.50;99.90;;;;;;4988241;28;19978;-75
2022/01/15 09:08:00;;;;;;;;;;;3.50;99.90;;;;;;4988137;28;19910;-75
2022/01/15 09:10:25;;;;;;;;;;;3.50;99.90;;;;;;4970501;28;20326;-76
2022/01/15 09:12:51;;;;;;;;;;;3.50;99.90;;;;;;4983453;28;20027;-76
2022/01/15 09:15:17;;;;;;;;;;;3.60;99.90;;;;;;5002733;28;19917;-75
2022/01/15 09:17:42;;;;;;;;;;;3.50;99.90;;;;;;5007711;28;20427;-77
2022/01/15 09:20:08;;;;;;;;;;;3.60;99.90;;;;;;5009501;28;20006;-75
2022/01/15 09:22:33;;;;;;;;;;;3.60;99.90;;;;;;5009705;28;19910;-79
2022/01/15 09:25:00;;;;;;;;;;;3.70;99.90;;;;;;5011971;28;19909;-76
2022/01/15 09:30:30;;;;;;;;;;;3.60;99.90;;;;;;5007147;28;19928;-75
2022/01/15 09:32:55;;;;;;;;;;;3.60;99.90;;;;;;4965441;28;20021;-75
2022/01/15 09:35:23;;;;;;;;;;;3.60;99.90;;;;;;4966838;28;20394;-79
2022/01/15 09:37:52;;;;;;;;;;;3.60;99.90;;;;;;4966129;28;19969;-75
2022/01/15 09:40:19;;;;;;;;;;;3.70;99.90;;;;;;4965691;28;19922;-74
2022/01/15 09:42:47;;;;;;;;;;;3.70;99.90;;;;;;4964669;28;19918;-79
2022/01/15 09:45:13;;;;;;;;;;;3.70;99.90;;;;;;4954988;28;19918;-84
2022/01/15 09:47:39;;;;;;;;;;;3.70;99.90;;;;;;4964697;28;19910;-77
2022/01/15 09:50:06;;;;;;;;;;;3.70;99.90;;;;;;4958628;28;19911;-81
2022/01/15 09:52:32;;;;;;;;;;;3.70;99.90;;;;;;4947964;28;20430;-76
2022/01/15 09:54:59;;;;;;;;;;;3.70;99.90;;;;;;4964678;28;19911;-78
2022/01/15 09:57:24;;;;;;;;;;;3.70;99.90;;;;;;4963992;28;19962;-78
2022/01/15 09:59:50;;;;;;;;;;;3.80;99.90;;;;;;4964333;28;19925;-80
2022/01/15 10:02:16;;;;;;;;;;;3.80;99.90;;;;;;4963871;28;20500;-84
2022/01/15 10:04:42;;;;;;;;;;;3.80;99.90;;;;;;4959665;28;19917;-81
2022/01/15 10:07:09;;;;;;;;;;;3.80;99.90;;;;;;4962240;28;19906;-80
2022/01/15 10:09:35;;;;;;;;;;;3.80;99.90;;;;;;4972034;28;19910;-77
2022/01/15 10:12:01;;;;;;;;;;;3.80;99.90;;;;;;5008700;28;19909;-81
2022/01/15 10:14:28;;;;;;;;;;;3.80;99.90;;;;;;4988418;28;20015;-84
2022/01/15 10:16:55;;;;;;;;;;;3.80;99.90;;;;;;4986327;28;19909;-78
2022/01/15 10:19:47;;;;;;;;;;;3.80;99.90;;;;;;5007313;28;20382;-79
2022/01/15 10:22:15;;;;;;;;;;;3.80;99.90;;;;;;4974402;28;19961;-77
2022/01/15 10:24:41;;;;;;;;;;;3.80;99.90;;;;;;4989922;28;19918;-78
2022/01/15 10:27:30;;;;;;;;;;;3.70;99.90;;;;;;5009468;28;19909;-84
2022/01/15 10:30:21;;;;;;;;;;;3.70;99.90;;;;;;5007019;28;19945;-76
2022/01/15 10:32:57;;;;;;;;;;;3.80;99.90;;;;;;4942014;29;19923;-78
2022/01/15 10:35:23;;;;;;;;;;;3.80;99.90;;;;;;5193139;23;19937;-87
2022/01/15 10:37:51;;;;;;;;;;;3.80;99.90;;;;;;4979124;28;19929;-82
2022/01/15 10:40:16;;;;;;;;;;;3.90;99.90;;;;;;4977992;28;19909;-84
2022/01/15 10:42:49;;;;;;;;;;;3.80;99.90;;;;;;4967405;28;19987;-78
2022/01/15 10:45:16;;;;;;;;;;;3.70;99.90;;;;;;4975652;28;19917;-81
2022/01/15 10:47:48;;;;;;;;;;;3.70;99.90;;;;;;4976259;28;19916;-78
2022/01/15 10:50:18;;;;;;;;;;;3.70;99.90;;;;;;4997860;28;19929;-86
2022/01/15 10:52:44;;;;;;;;;;;3.70;99.90;;;;;;5013898;28;19910;-88
2022/01/15 10:55:11;;;;;;;;;;;3.70;99.90;;;;;;5013670;28;19910;-83
2022/01/15 10:57:40;;;;;;;;;;;3.80;99.90;;;;;;4987068;28;19925;-82
2022/01/15 11:00:08;;;;;;;;;;;3.80;99.90;;;;;;5006348;28;20312;-77
2022/01/15 11:02:33;;;;;;;;;;;3.80;99.90;;;;;;5039310;28;19913;-79
2022/01/15 11:04:59;;;;;;;;;;;3.80;99.90;;;;;;5016722;28;19945;-88
2022/01/15 11:07:25;;;;;;;;;;;3.80;99.90;;;;;;5012341;28;19917;-84
2022/01/15 11:09:51;;;;;;;;;;;3.80;99.90;;;;;;5012378;28;19999;-84
2022/01/15 11:12:17;;;;;;;;;;;3.80;99.90;;;;;;5018726;28;19933;-86
2022/01/15 11:14:42;;;;;;;;;;;3.90;99.90;;;;;;5024099;28;19909;-88
2022/01/15 11:17:08;;;;;;;;;;;3.80;99.90;;;;;;5013443;28;20150;-84
2022/01/15 11:19:34;;;;;;;;;;;3.80;99.90;;;;;;5010172;28;20270;-84
2022/01/15 11:22:01;;;;;;;;;;;3.80;99.90;;;;;;5022415;28;19913;-87
2022/01/15 11:24:26;;;;;;;;;;;3.80;99.90;;;;;;5014078;28;20214;-81
2022/01/15 11:26:55;;;;;;;;;;;3.80;99.90;;;;;;5013580;28;19910;-86
2022/01/15 11:29:21;;;;;;;;;;;3.80;99.90;;;;;;5013177;28;19913;-82
2022/01/15 11:31:50;;;;;;;;;;;3.80;99.90;;;;;;5002170;28;19963;-88
2022/01/15 11:34:19;;;;;;;;;;;3.80;99.90;;;;;;5014271;28;20257;-78
2022/01/15 11:36:44;;;;;;;;;;;3.80;99.90;;;;;;5014160;28;20000;-84
2022/01/15 11:39:10;;;;;;;;;;;3.80;99.90;;;;;;5015280;28;19992;-80
2022/01/15 11:41:37;;;;;;;;;;;3.80;99.90;;;;;;5002867;28;19910;-78
2022/01/15 11:44:03;;;;;;;;;;;3.70;99.90;;;;;;5003003;28;19949;-79
2022/01/15 11:46:49;;;;;;;;;;;3.70;99.90;;;;;;4978455;28;19914;-83
2022/01/15 11:49:32;;;;;;;;;;;3.70;99.90;;;;;;4993703;28;19910;-80
2022/01/15 11:52:11;;;;;;;;;;;3.70;99.90;;;;;;5002821;28;19910;-78
2022/01/15 11:54:37;;;;;;;;;;;3.70;99.90;;;;;;4978582;28;20007;-77
2022/01/15 11:57:03;;;;;;;;;;;3.70;99.90;;;;;;4982836;28;20300;-80
2022/01/15 11:59:29;;;;;;;;;;;3.70;99.90;;;;;;5001199;28;19929;-76
2022/01/15 12:01:57;;;;;;;;;;;3.60;99.90;;;;;;5005531;28;19909;-79
2022/01/15 12:04:26;;;;;;;;;;;3.60;99.90;;;;;;5002780;28;20400;-77
2022/01/15 12:07:00;;;;;;;;;;;3.60;99.90;;;;;;5003557;28;19999;-75
2022/01/15 12:09:41;;;;;;;;;;;3.60;99.90;;;;;;4984479;28;19924;-80
2022/01/15 12:12:35;;;;;;;;;;;3.50;99.90;;;;;;4979175;28;19917;-76
2022/01/15 12:15:05;;;;;;;;;;;3.50;99.90;;;;;;4977077;28;19917;-78
2022/01/15 12:17:36;;;;;;;;;;;3.50;99.90;;;;;;4989445;28;19914;-79
2022/01/15 12:20:26;;;;;;;;;;;3.60;99.90;;;;;;4987442;28;19999;-77
2022/01/15 12:22:52;;;;;;;;;;;3.60;99.90;;;;;;4994901;28;19914;-81
2022/01/15 12:25:18;;;;;;;;;;;3.60;99.90;;;;;;4996683;28;19910;-76
2022/01/15 12:27:47;;;;;;;;;;;3.60;99.90;;;;;;5001573;28;19917;-76
2022/01/15 12:30:33;;;;;;;;;;;3.60;99.90;;;;;;5004624;28;19988;-75
2022/01/15 12:33:02;;;;;;;;;;;3.70;99.90;;;;;;4925532;29;19946;-76
2022/01/15 12:35:32;;;;;;;;;;;3.70;99.90;;;;;;4918855;29;19919;-80
2022/01/15 12:37:58;;;;;;;;;;;3.60;99.90;;;;;;4913092;29;19929;-76
2022/01/15 12:40:29;;;;;;;;;;;3.60;99.90;;;;;;4912598;29;19994;-76
2022/01/15 12:42:58;;;;;;;;;;;3.60;99.90;;;;;;4917861;29;19911;-78
2022/01/15 12:45:24;;;;;;;;;;;3.60;99.90;;;;;;4908387;29;20335;-76
2022/01/15 12:47:50;;;;;;;;;;;3.60;99.90;;;;;;4925645;29;19911;-82
2022/01/15 12:50:15;;;;;;;;;;;3.50;99.90;;;;;;4927013;29;19921;-80
2022/01/15 12:52:41;;;;;;;;;;;3.60;99.90;;;;;;4926671;29;20485;-78
2022/01/15 12:55:07;;;;;;;;;;;3.50;99.90;;;;;;4935558;29;19910;-82
2022/01/15 12:57:43;;;;;;;;;;;3.50;99.90;;;;;;4930666;29;20319;-78
2022/01/15 13:02:55;;;;;;;;;;;3.50;99.90;;;;;;5048506;23;20420;-76
2022/01/15 13:05:23;;;;;;;;;;;3.40;99.90;;;;;;4963655;28;19917;-76
2022/01/15 13:07:56;;;;;;;;;;;3.40;99.90;;;;;;4963599;28;19917;-76
2022/01/15 13:10:29;;;;;;;;;;;3.30;99.90;;;;;;4958441;28;19914;-77
2022/01/15 13:26:27;;;;;;;;;;;3.50;99.90;;;;;;5064270;23;19937;-96
2022/01/15 13:29:07;;;;;;;;;;;3.30;99.90;;;;;;4955173;28;19921;-96
2022/01/15 13:31:46;;;;;;;;;;;3.30;99.90;;;;;;4950334;28;20524;-95
2022/01/15 13:39:36;;;;;;;;;;;3.00;99.90;;;;;;5177971;23;19929;-74
